sensor_id;sensor_type;location;lat;lon;timestamp;P1;durP1;ratioP1;P2;durP2;ratioP2
81211;SDS011;70686;52.494;13.420;2023-09-19T00:02:16;7.25;;;2.97;;
81211;SDS011;70686;52.494;13.420;2023-09-19T00:04:44;7.68;;;3.20;;
81211;SDS011;70686;52.494;13.420;2023-09-19T00:07:10;4.85;;;2.97;;
81211;SDS011;70686;52.494;13.420;2023-09-19T00:09:35;5.45;;;3.03;;
81211;SDS011;70686;52.494;13.420;2023-09-19T00:12:04;4.47;;;2.80;;
81211;SDS011;70686;52.494;13.420;2023-09-19T00:14:31;5.43;;;2.88;;
81211;SDS011;70686;52.494;13.420;2023-09-19T00:17:01;5.03;;;3.35;;
81211;SDS011;70686;52.494;13.420;2023-09-19T00:19:33;4.15;;;2.90;;
81211;SDS011;70686;52.494;13.420;2023-09-19T00:21:59;7.25;;;3.00;;
81211;SDS011;70686;52.494;13.420;2023-09-19T00:24:24;4.28;;;3.00;;
81211;SDS011;70686;52.494;13.420;2023-09-19T00:26:50;5.32;;;3.30;;
81211;SDS011;70686;52.494;13.420;2023-09-19T00:29:15;6.35;;;3.15;;
81211;SDS011;70686;52.494;13.420;2023-09-19T00:31:44;4.85;;;3.00;;
81211;SDS011;70686;52.494;13.420;2023-09-19T00:34:10;5.53;;;2.97;;
81211;SDS011;70686;52.494;13.420;2023-09-19T00:36:38;4.15;;;2.90;;
81211;SDS011;70686;52.494;13.420;2023-09-19T00:39:04;7.28;;;3.15;;
81211;SDS011;70686;52.494;13.420;2023-09-19T00:41:34;5.30;;;3.00;;
81211;SDS011;70686;52.494;13.420;2023-09-19T00:44:01;5.15;;;2.75;;
81211;SDS011;70686;52.494;13.420;2023-09-19T00:46:28;4.05;;;2.80;;
81211;SDS011;70686;52.494;13.420;2023-09-19T00:48:53;6.55;;;3.00;;
81211;SDS011;70686;52.494;13.420;2023-09-19T00:51:19;7.30;;;3.30;;
81211;SDS011;70686;52.494;13.420;2023-09-19T00:53:48;4.75;;;3.55;;
81211;SDS011;70686;52.494;13.420;2023-09-19T00:56:14;5.70;;;3.10;;
81211;SDS011;70686;52.494;13.420;2023-09-19T00:58:43;4.65;;;2.95;;
81211;SDS011;70686;52.494;13.420;2023-09-19T01:01:09;4.20;;;2.80;;
81211;SDS011;70686;52.494;13.420;2023-09-19T01:03:36;4.25;;;2.78;;
81211;SDS011;70686;52.494;13.420;2023-09-19T01:06:02;5.63;;;2.90;;
81211;SDS011;70686;52.494;13.420;2023-09-19T01:08:28;3.42;;;2.60;;
81211;SDS011;70686;52.494;13.420;2023-09-19T01:11:14;5.28;;;2.60;;
81211;SDS011;70686;52.494;13.420;2023-09-19T01:19:54;4.53;;;2.75;;
81211;SDS011;70686;52.494;13.420;2023-09-19T01:22:48;4.90;;;3.00;;
81211;SDS011;70686;52.494;13.420;2023-09-19T01:28:32;6.65;;;3.00;;
81211;SDS011;70686;52.494;13.420;2023-09-19T01:31:08;5.03;;;2.78;;
81211;SDS011;70686;52.494;13.420;2023-09-19T01:36:28;7.20;;;3.03;;
81211;SDS011;70686;52.494;13.420;2023-09-19T01:38:54;5.35;;;2.83;;
81211;SDS011;70686;52.494;13.420;2023-09-19T01:41:33;6.57;;;3.00;;
81211;SDS011;70686;52.494;13.420;2023-09-19T01:44:31;4.72;;;2.80;;
81211;SDS011;70686;52.494;13.420;2023-09-19T01:47:13;4.55;;;2.90;;
81211;SDS011;70686;52.494;13.420;2023-09-19T01:52:41;5.45;;;2.92;;
81211;SDS011;70686;52.494;13.420;2023-09-19T01:55:13;6.18;;;3.10;;
81211;SDS011;70686;52.494;13.420;2023-09-19T01:57:45;7.60;;;3.58;;
81211;SDS011;70686;52.494;13.420;2023-09-19T02:00:19;5.03;;;2.80;;
81211;SDS011;70686;52.494;13.420;2023-09-19T02:02:48;3.67;;;2.53;;
81211;SDS011;70686;52.494;13.420;2023-09-19T02:05:24;3.97;;;2.78;;
81211;SDS011;70686;52.494;13.420;2023-09-19T02:07:51;4.82;;;2.67;;
81211;SDS011;70686;52.494;13.420;2023-09-19T02:10:18;4.82;;;2.95;;
81211;SDS011;70686;52.494;13.420;2023-09-19T02:12:43;4.18;;;2.72;;
81211;SDS011;70686;52.494;13.420;2023-09-19T02:15:10;4.07;;;2.83;;
81211;SDS011;70686;52.494;13.420;2023-09-19T02:17:35;4.75;;;2.78;;
81211;SDS011;70686;52.494;13.420;2023-09-19T02:20:01;5.88;;;2.80;;
81211;SDS011;70686;52.494;13.420;2023-09-19T02:22:28;3.25;;;2.40;;
81211;SDS011;70686;52.494;13.420;2023-09-19T02:24:54;4.85;;;2.83;;
81211;SDS011;70686;52.494;13.420;2023-09-19T02:27:23;6.28;;;2.88;;
81211;SDS011;70686;52.494;13.420;2023-09-19T02:29:49;8.18;;;3.10;;
81211;SDS011;70686;52.494;13.420;2023-09-19T02:32:14;4.05;;;2.65;;
81211;SDS011;70686;52.494;13.420;2023-09-19T02:34:43;5.07;;;2.80;;
81211;SDS011;70686;52.494;13.420;2023-09-19T02:37:09;5.05;;;2.80;;
81211;SDS011;70686;52.494;13.420;2023-09-19T02:39:35;4.65;;;2.80;;
81211;SDS011;70686;52.494;13.420;2023-09-19T02:42:01;5.50;;;3.00;;
81211;SDS011;70686;52.494;13.420;2023-09-19T02:44:29;4.55;;;2.50;;
81211;SDS011;70686;52.494;13.420;2023-09-19T02:46:54;5.90;;;3.03;;
81211;SDS011;70686;52.494;13.420;2023-09-19T02:49:22;4.18;;;2.70;;
81211;SDS011;70686;52.494;13.420;2023-09-19T02:51:48;4.90;;;3.15;;
81211;SDS011;70686;52.494;13.420;2023-09-19T02:54:14;6.30;;;3.00;;
81211;SDS011;70686;52.494;13.420;2023-09-19T02:56:40;6.32;;;3.55;;
81211;SDS011;70686;52.494;13.420;2023-09-19T02:59:06;4.65;;;2.78;;
81211;SDS011;70686;52.494;13.420;2023-09-19T03:01:32;3.33;;;2.50;;
81211;SDS011;70686;52.494;13.420;2023-09-19T03:03:59;4.63;;;2.50;;
81211;SDS011;70686;52.494;13.420;2023-09-19T03:06:24;4.15;;;2.58;;
81211;SDS011;70686;52.494;13.420;2023-09-19T03:08:50;5.95;;;2.60;;
81211;SDS011;70686;52.494;13.420;2023-09-19T03:11:17;6.68;;;2.83;;
81211;SDS011;70686;52.494;13.420;2023-09-19T03:13:50;4.75;;;3.08;;
81211;SDS011;70686;52.494;13.420;2023-09-19T03:19:18;4.75;;;2.58;;
81211;SDS011;70686;52.494;13.420;2023-09-19T03:21:45;5.32;;;2.78;;
81211;SDS011;70686;52.494;13.420;2023-09-19T03:24:14;3.65;;;2.50;;
81211;SDS011;70686;52.494;13.420;2023-09-19T03:26:39;4.82;;;2.70;;
81211;SDS011;70686;52.494;13.420;2023-09-19T03:29:05;3.70;;;2.67;;
81211;SDS011;70686;52.494;13.420;2023-09-19T03:31:32;5.70;;;2.58;;
81211;SDS011;70686;52.494;13.420;2023-09-19T03:33:57;3.78;;;2.28;;
81211;SDS011;70686;52.494;13.420;2023-09-19T03:36:23;4.80;;;2.70;;
81211;SDS011;70686;52.494;13.420;2023-09-19T03:38:49;5.72;;;2.78;;
81211;SDS011;70686;52.494;13.420;2023-09-19T03:41:14;3.40;;;2.70;;
81211;SDS011;70686;52.494;13.420;2023-09-19T03:43:42;3.50;;;2.13;;
81211;SDS011;70686;52.494;13.420;2023-09-19T03:46:07;4.50;;;2.50;;
81211;SDS011;70686;52.494;13.420;2023-09-19T03:48:33;3.42;;;2.17;;
81211;SDS011;70686;52.494;13.420;2023-09-19T03:50:59;3.30;;;2.10;;
81211;SDS011;70686;52.494;13.420;2023-09-19T03:53:25;3.22;;;2.40;;
81211;SDS011;70686;52.494;13.420;2023-09-19T03:55:51;2.60;;;2.03;;
81211;SDS011;70686;52.494;13.420;2023-09-19T03:58:16;4.35;;;2.60;;
81211;SDS011;70686;52.494;13.420;2023-09-19T04:00:42;4.32;;;2.67;;
81211;SDS011;70686;52.494;13.420;2023-09-19T04:03:07;3.72;;;2.53;;
81211;SDS011;70686;52.494;13.420;2023-09-19T04:05:35;2.95;;;2.28;;
81211;SDS011;70686;52.494;13.420;2023-09-19T04:08:01;3.60;;;2.40;;
81211;SDS011;70686;52.494;13.420;2023-09-19T04:10:27;5.05;;;2.22;;
81211;SDS011;70686;52.494;13.420;2023-09-19T04:12:53;3.05;;;2.33;;
81211;SDS011;70686;52.494;13.420;2023-09-19T04:15:20;3.28;;;2.35;;
81211;SDS011;70686;52.494;13.420;2023-09-19T04:17:49;3.22;;;2.53;;
81211;SDS011;70686;52.494;13.420;2023-09-19T04:20:16;3.75;;;2.40;;
81211;SDS011;70686;52.494;13.420;2023-09-19T04:22:44;4.82;;;2.80;;
81211;SDS011;70686;52.494;13.420;2023-09-19T04:25:11;4.47;;;2.67;;
81211;SDS011;70686;52.494;13.420;2023-09-19T04:27:37;2.17;;;1.98;;
81211;SDS011;70686;52.494;13.420;2023-09-19T04:30:03;2.92;;;2.33;;
81211;SDS011;70686;52.494;13.420;2023-09-19T04:32:35;2.73;;;2.30;;
81211;SDS011;70686;52.494;13.420;2023-09-19T04:35:03;3.25;;;2.38;;
81211;SDS011;70686;52.494;13.420;2023-09-19T04:37:31;4.75;;;2.33;;
81211;SDS011;70686;52.494;13.420;2023-09-19T04:39:56;4.07;;;2.30;;
81211;SDS011;70686;52.494;13.420;2023-09-19T04:42:22;6.78;;;2.30;;
81211;SDS011;70686;52.494;13.420;2023-09-19T04:44:50;3.22;;;2.50;;
81211;SDS011;70686;52.494;13.420;2023-09-19T04:47:18;5.28;;;2.55;;
81211;SDS011;70686;52.494;13.420;2023-09-19T04:49:44;4.28;;;2.25;;
81211;SDS011;70686;52.494;13.420;2023-09-19T04:52:11;4.25;;;2.30;;
81211;SDS011;70686;52.494;13.420;2023-09-19T04:54:36;5.05;;;2.50;;
81211;SDS011;70686;52.494;13.420;2023-09-19T04:57:03;4.60;;;2.60;;
81211;SDS011;70686;52.494;13.420;2023-09-19T04:59:30;5.88;;;2.60;;
81211;SDS011;70686;52.494;13.420;2023-09-19T05:01:56;3.58;;;2.15;;
81211;SDS011;70686;52.494;13.420;2023-09-19T05:04:22;3.88;;;2.45;;
81211;SDS011;70686;52.494;13.420;2023-09-19T05:06:47;3.45;;;2.30;;
81211;SDS011;70686;52.494;13.420;2023-09-19T05:09:13;2.25;;;1.95;;
81211;SDS011;70686;52.494;13.420;2023-09-19T05:11:40;4.20;;;2.55;;
81211;SDS011;70686;52.494;13.420;2023-09-19T05:14:06;3.67;;;2.30;;
81211;SDS011;70686;52.494;13.420;2023-09-19T05:16:31;2.58;;;2.13;;
81211;SDS011;70686;52.494;13.420;2023-09-19T05:18:57;4.10;;;2.13;;
81211;SDS011;70686;52.494;13.420;2023-09-19T05:21:25;4.07;;;2.40;;
81211;SDS011;70686;52.494;13.420;2023-09-19T05:23:54;4.20;;;2.58;;
81211;SDS011;70686;52.494;13.420;2023-09-19T05:26:20;6.90;;;2.53;;
81211;SDS011;70686;52.494;13.420;2023-09-19T05:28:46;4.97;;;2.60;;
81211;SDS011;70686;52.494;13.420;2023-09-19T05:31:13;3.88;;;2.60;;
81211;SDS011;70686;52.494;13.420;2023-09-19T05:33:39;3.63;;;2.40;;
81211;SDS011;70686;52.494;13.420;2023-09-19T05:36:04;5.63;;;2.50;;
81211;SDS011;70686;52.494;13.420;2023-09-19T05:38:30;4.82;;;2.63;;
81211;SDS011;70686;52.494;13.420;2023-09-19T05:40:57;3.58;;;2.33;;
81211;SDS011;70686;52.494;13.420;2023-09-19T05:43:23;6.63;;;3.05;;
81211;SDS011;70686;52.494;13.420;2023-09-19T05:45:49;4.03;;;2.70;;
81211;SDS011;70686;52.494;13.420;2023-09-19T05:48:17;4.55;;;2.88;;
81211;SDS011;70686;52.494;13.420;2023-09-19T05:50:43;4.13;;;2.90;;
81211;SDS011;70686;52.494;13.420;2023-09-19T05:53:11;4.10;;;2.50;;
81211;SDS011;70686;52.494;13.420;2023-09-19T05:55:39;4.55;;;2.72;;
81211;SDS011;70686;52.494;13.420;2023-09-19T05:58:05;4.07;;;2.78;;
81211;SDS011;70686;52.494;13.420;2023-09-19T06:00:31;4.28;;;2.65;;
81211;SDS011;70686;52.494;13.420;2023-09-19T06:02:57;3.75;;;2.50;;
81211;SDS011;70686;52.494;13.420;2023-09-19T06:05:24;8.20;;;3.20;;
81211;SDS011;70686;52.494;13.420;2023-09-19T06:07:55;4.03;;;2.60;;
81211;SDS011;70686;52.494;13.420;2023-09-19T06:10:25;4.63;;;2.85;;
81211;SDS011;70686;52.494;13.420;2023-09-19T06:12:51;3.80;;;2.97;;
81211;SDS011;70686;52.494;13.420;2023-09-19T06:15:16;4.93;;;2.88;;
81211;SDS011;70686;52.494;13.420;2023-09-19T06:17:48;6.22;;;2.90;;
81211;SDS011;70686;52.494;13.420;2023-09-19T06:20:15;4.45;;;2.90;;
81211;SDS011;70686;52.494;13.420;2023-09-19T06:22:41;3.53;;;2.65;;
81211;SDS011;70686;52.494;13.420;2023-09-19T06:25:08;6.80;;;3.00;;
81211;SDS011;70686;52.494;13.420;2023-09-19T06:27:36;4.20;;;2.55;;
81211;SDS011;70686;52.494;13.420;2023-09-19T06:30:03;8.60;;;2.80;;
81211;SDS011;70686;52.494;13.420;2023-09-19T06:32:29;4.97;;;2.63;;
81211;SDS011;70686;52.494;13.420;2023-09-19T06:34:55;5.55;;;3.28;;
81211;SDS011;70686;52.494;13.420;2023-09-19T06:37:21;3.78;;;2.65;;
81211;SDS011;70686;52.494;13.420;2023-09-19T06:39:47;5.38;;;2.75;;
81211;SDS011;70686;52.494;13.420;2023-09-19T06:42:14;5.15;;;3.00;;
81211;SDS011;70686;52.494;13.420;2023-09-19T06:44:42;5.93;;;2.90;;
81211;SDS011;70686;52.494;13.420;2023-09-19T06:47:08;6.05;;;2.92;;
81211;SDS011;70686;52.494;13.420;2023-09-19T06:49:35;4.63;;;2.53;;
81211;SDS011;70686;52.494;13.420;2023-09-19T06:52:00;5.68;;;3.00;;
81211;SDS011;70686;52.494;13.420;2023-09-19T06:54:27;3.85;;;2.80;;
81211;SDS011;70686;52.494;13.420;2023-09-19T06:56:56;4.75;;;2.80;;
81211;SDS011;70686;52.494;13.420;2023-09-19T06:59:23;5.43;;;2.72;;
81211;SDS011;70686;52.494;13.420;2023-09-19T07:01:49;4.55;;;3.08;;
81211;SDS011;70686;52.494;13.420;2023-09-19T07:04:16;3.85;;;2.60;;
81211;SDS011;70686;52.494;13.420;2023-09-19T07:06:41;2.85;;;2.50;;
81211;SDS011;70686;52.494;13.420;2023-09-19T07:09:07;4.20;;;2.50;;
81211;SDS011;70686;52.494;13.420;2023-09-19T07:11:33;4.70;;;2.90;;
81211;SDS011;70686;52.494;13.420;2023-09-19T07:13:59;6.13;;;2.58;;
81211;SDS011;70686;52.494;13.420;2023-09-19T07:16:28;4.70;;;2.60;;
81211;SDS011;70686;52.494;13.420;2023-09-19T07:18:54;7.13;;;3.13;;
81211;SDS011;70686;52.494;13.420;2023-09-19T07:21:21;7.15;;;2.70;;
81211;SDS011;70686;52.494;13.420;2023-09-19T07:23:47;6.93;;;3.20;;
81211;SDS011;70686;52.494;13.420;2023-09-19T07:26:14;4.03;;;2.65;;
81211;SDS011;70686;52.494;13.420;2023-09-19T07:28:40;3.83;;;2.70;;
81211;SDS011;70686;52.494;13.420;2023-09-19T07:31:06;6.82;;;3.63;;
81211;SDS011;70686;52.494;13.420;2023-09-19T07:33:35;5.30;;;2.85;;
81211;SDS011;70686;52.494;13.420;2023-09-19T07:36:01;5.30;;;2.97;;
81211;SDS011;70686;52.494;13.420;2023-09-19T07:38:27;6.88;;;3.15;;
81211;SDS011;70686;52.494;13.420;2023-09-19T07:40:52;3.85;;;2.70;;
81211;SDS011;70686;52.494;13.420;2023-09-19T07:43:18;4.78;;;3.10;;
81211;SDS011;70686;52.494;13.420;2023-09-19T07:45:44;7.18;;;3.35;;
81211;SDS011;70686;52.494;13.420;2023-09-19T07:48:10;6.75;;;3.03;;
81211;SDS011;70686;52.494;13.420;2023-09-19T07:50:39;7.38;;;3.50;;
81211;SDS011;70686;52.494;13.420;2023-09-19T07:53:06;4.65;;;3.35;;
81211;SDS011;70686;52.494;13.420;2023-09-19T07:55:32;6.57;;;3.80;;
81211;SDS011;70686;52.494;13.420;2023-09-19T07:57:59;6.40;;;3.72;;
81211;SDS011;70686;52.494;13.420;2023-09-19T08:00:24;5.28;;;3.50;;
81211;SDS011;70686;52.494;13.420;2023-09-19T08:02:50;5.85;;;3.22;;
81211;SDS011;70686;52.494;13.420;2023-09-19T08:05:17;7.68;;;3.38;;
81211;SDS011;70686;52.494;13.420;2023-09-19T08:07:44;6.22;;;3.53;;
81211;SDS011;70686;52.494;13.420;2023-09-19T08:10:13;4.85;;;3.60;;
81211;SDS011;70686;52.494;13.420;2023-09-19T08:12:44;5.13;;;3.42;;
81211;SDS011;70686;52.494;13.420;2023-09-19T08:15:17;5.30;;;3.13;;
81211;SDS011;70686;52.494;13.420;2023-09-19T08:17:44;6.00;;;3.05;;
81211;SDS011;70686;52.494;13.420;2023-09-19T08:20:11;4.88;;;3.17;;
81211;SDS011;70686;52.494;13.420;2023-09-19T08:22:47;4.82;;;3.05;;
81211;SDS011;70686;52.494;13.420;2023-09-19T08:25:20;5.15;;;3.17;;
81211;SDS011;70686;52.494;13.420;2023-09-19T08:27:47;6.50;;;2.95;;
81211;SDS011;70686;52.494;13.420;2023-09-19T08:30:21;5.30;;;3.22;;
81211;SDS011;70686;52.494;13.420;2023-09-19T08:32:56;6.20;;;3.13;;
81211;SDS011;70686;52.494;13.420;2023-09-19T08:35:26;6.63;;;3.40;;
81211;SDS011;70686;52.494;13.420;2023-09-19T08:37:52;7.35;;;3.40;;
81211;SDS011;70686;52.494;13.420;2023-09-19T08:40:18;4.72;;;3.50;;
81211;SDS011;70686;52.494;13.420;2023-09-19T08:42:53;6.80;;;3.33;;
81211;SDS011;70686;52.494;13.420;2023-09-19T08:45:20;7.70;;;3.72;;
81211;SDS011;70686;52.494;13.420;2023-09-19T08:48:30;8.35;;;4.05;;
81211;SDS011;70686;52.494;13.420;2023-09-19T08:50:43;9.05;;;3.90;;
81211;SDS011;70686;52.494;13.420;2023-09-19T08:53:28;7.10;;;3.72;;
81211;SDS011;70686;52.494;13.420;2023-09-19T08:55:57;5.63;;;3.53;;
81211;SDS011;70686;52.494;13.420;2023-09-19T08:58:30;5.85;;;3.90;;
81211;SDS011;70686;52.494;13.420;2023-09-19T09:01:00;4.43;;;3.22;;
81211;SDS011;70686;52.494;13.420;2023-09-19T09:03:26;7.53;;;3.35;;
81211;SDS011;70686;52.494;13.420;2023-09-19T09:05:57;6.03;;;3.40;;
81211;SDS011;70686;52.494;13.420;2023-09-19T09:08:24;6.25;;;3.33;;
81211;SDS011;70686;52.494;13.420;2023-09-19T09:10:50;5.60;;;3.30;;
81211;SDS011;70686;52.494;13.420;2023-09-19T09:13:16;5.28;;;3.45;;
81211;SDS011;70686;52.494;13.420;2023-09-19T09:15:43;5.05;;;3.58;;
81211;SDS011;70686;52.494;13.420;2023-09-19T09:18:10;9.05;;;3.58;;
81211;SDS011;70686;52.494;13.420;2023-09-19T09:20:35;6.47;;;3.85;;
81211;SDS011;70686;52.494;13.420;2023-09-19T09:23:01;5.10;;;3.08;;
81211;SDS011;70686;52.494;13.420;2023-09-19T09:25:47;7.57;;;3.38;;
81211;SDS011;70686;52.494;13.420;2023-09-19T09:28:20;5.40;;;3.05;;
81211;SDS011;70686;52.494;13.420;2023-09-19T09:30:47;8.48;;;3.55;;
81211;SDS011;70686;52.494;13.420;2023-09-19T09:33:13;10.13;;;3.80;;
81211;SDS011;70686;52.494;13.420;2023-09-19T09:35:54;7.13;;;3.60;;
81211;SDS011;70686;52.494;13.420;2023-09-19T09:38:26;6.72;;;3.67;;
81211;SDS011;70686;52.494;13.420;2023-09-19T09:40:53;8.05;;;3.60;;
81211;SDS011;70686;52.494;13.420;2023-09-19T09:46:09;8.00;;;3.67;;
81211;SDS011;70686;52.494;13.420;2023-09-19T09:51:37;8.38;;;3.72;;
81211;SDS011;70686;52.494;13.420;2023-09-19T09:54:14;5.85;;;3.55;;
81211;SDS011;70686;52.494;13.420;2023-09-19T09:56:59;7.13;;;3.53;;
81211;SDS011;70686;52.494;13.420;2023-09-19T09:59:54;8.55;;;3.40;;
81211;SDS011;70686;52.494;13.420;2023-09-19T10:02:27;8.15;;;3.88;;
81211;SDS011;70686;52.494;13.420;2023-09-19T10:05:11;4.78;;;3.22;;
81211;SDS011;70686;52.494;13.420;2023-09-19T10:07:44;7.20;;;3.20;;
81211;SDS011;70686;52.494;13.420;2023-09-19T10:10:37;6.13;;;3.15;;
81211;SDS011;70686;52.494;13.420;2023-09-19T10:13:08;7.93;;;3.05;;
81211;SDS011;70686;52.494;13.420;2023-09-19T10:15:40;5.35;;;3.08;;
81211;SDS011;70686;52.494;13.420;2023-09-19T10:18:13;4.85;;;2.65;;
81211;SDS011;70686;52.494;13.420;2023-09-19T10:20:44;6.53;;;3.20;;
81211;SDS011;70686;52.494;13.420;2023-09-19T10:23:11;6.40;;;3.08;;
81211;SDS011;70686;52.494;13.420;2023-09-19T10:25:43;4.82;;;3.20;;
81211;SDS011;70686;52.494;13.420;2023-09-19T10:28:12;12.67;;;3.93;;
81211;SDS011;70686;52.494;13.420;2023-09-19T10:30:43;6.47;;;2.85;;
81211;SDS011;70686;52.494;13.420;2023-09-19T10:33:12;6.13;;;3.40;;
81211;SDS011;70686;52.494;13.420;2023-09-19T10:35:40;5.38;;;2.95;;
81211;SDS011;70686;52.494;13.420;2023-09-19T10:38:11;5.15;;;3.05;;
81211;SDS011;70686;52.494;13.420;2023-09-19T10:40:44;6.32;;;3.30;;
81211;SDS011;70686;52.494;13.420;2023-09-19T10:43:15;8.43;;;3.53;;
81211;SDS011;70686;52.494;13.420;2023-09-19T10:45:45;6.85;;;3.60;;
81211;SDS011;70686;52.494;13.420;2023-09-19T10:48:14;6.22;;;3.10;;
81211;SDS011;70686;52.494;13.420;2023-09-19T10:50:45;7.43;;;3.40;;
81211;SDS011;70686;52.494;13.420;2023-09-19T10:53:15;7.68;;;3.35;;
81211;SDS011;70686;52.494;13.420;2023-09-19T10:55:47;7.28;;;3.53;;
81211;SDS011;70686;52.494;13.420;2023-09-19T10:58:25;6.20;;;3.03;;
81211;SDS011;70686;52.494;13.420;2023-09-19T11:00:54;6.63;;;3.22;;
81211;SDS011;70686;52.494;13.420;2023-09-19T11:03:22;10.13;;;3.33;;
81211;SDS011;70686;52.494;13.420;2023-09-19T11:06:03;6.45;;;2.95;;
81211;SDS011;70686;52.494;13.420;2023-09-19T11:08:36;6.97;;;3.58;;
81211;SDS011;70686;52.494;13.420;2023-09-19T11:16:39;4.22;;;2.80;;
81211;SDS011;70686;52.494;13.420;2023-09-19T11:19:05;6.68;;;3.10;;
81211;SDS011;70686;52.494;13.420;2023-09-19T11:26:42;6.82;;;2.92;;
81211;SDS011;70686;52.494;13.420;2023-09-19T11:29:25;7.25;;;3.05;;
81211;SDS011;70686;52.494;13.420;2023-09-19T11:31:52;8.80;;;2.88;;
81211;SDS011;70686;52.494;13.420;2023-09-19T11:40:06;7.03;;;2.83;;
81211;SDS011;70686;52.494;13.420;2023-09-19T11:42:42;6.00;;;2.60;;
81211;SDS011;70686;52.494;13.420;2023-09-19T11:48:15;6.47;;;2.83;;
81211;SDS011;70686;52.494;13.420;2023-09-19T11:50:43;4.13;;;2.78;;
81211;SDS011;70686;52.494;13.420;2023-09-19T11:53:13;7.22;;;2.70;;
81211;SDS011;70686;52.494;13.420;2023-09-19T11:55:41;8.30;;;3.17;;
81211;SDS011;70686;52.494;13.420;2023-09-19T11:58:09;5.25;;;2.55;;
81211;SDS011;70686;52.494;13.420;2023-09-19T12:00:39;5.07;;;2.47;;
81211;SDS011;70686;52.494;13.420;2023-09-19T12:03:09;5.80;;;2.80;;
81211;SDS011;70686;52.494;13.420;2023-09-19T12:05:36;6.75;;;2.50;;
81211;SDS011;70686;52.494;13.420;2023-09-19T12:08:03;5.28;;;2.53;;
81211;SDS011;70686;52.494;13.420;2023-09-19T12:10:32;3.78;;;2.33;;
81211;SDS011;70686;52.494;13.420;2023-09-19T12:12:59;10.48;;;2.45;;
81211;SDS011;70686;52.494;13.420;2023-09-19T12:15:25;5.82;;;2.58;;
81211;SDS011;70686;52.494;13.420;2023-09-19T12:17:59;4.70;;;1.88;;
81211;SDS011;70686;52.494;13.420;2023-09-19T12:20:25;5.82;;;2.60;;
81211;SDS011;70686;52.494;13.420;2023-09-19T12:23:15;5.38;;;2.72;;
81211;SDS011;70686;52.494;13.420;2023-09-19T12:25:43;6.05;;;2.30;;
81211;SDS011;70686;52.494;13.420;2023-09-19T12:28:17;3.65;;;2.38;;
81211;SDS011;70686;52.494;13.420;2023-09-19T12:30:43;3.03;;;2.05;;
81211;SDS011;70686;52.494;13.420;2023-09-19T12:33:16;4.03;;;1.85;;
81211;SDS011;70686;52.494;13.420;2023-09-19T12:35:46;5.28;;;2.60;;
81211;SDS011;70686;52.494;13.420;2023-09-19T12:38:26;9.82;;;2.45;;
81211;SDS011;70686;52.494;13.420;2023-09-19T12:41:01;4.05;;;1.85;;
81211;SDS011;70686;52.494;13.420;2023-09-19T12:43:28;8.50;;;2.40;;
81211;SDS011;70686;52.494;13.420;2023-09-19T12:45:57;5.40;;;2.20;;
81211;SDS011;70686;52.494;13.420;2023-09-19T12:48:25;4.30;;;1.77;;
81211;SDS011;70686;52.494;13.420;2023-09-19T12:51:07;6.88;;;2.15;;
81211;SDS011;70686;52.494;13.420;2023-09-19T12:53:38;4.13;;;2.03;;
81211;SDS011;70686;52.494;13.420;2023-09-19T12:56:07;4.80;;;2.15;;
81211;SDS011;70686;52.494;13.420;2023-09-19T12:58:48;4.28;;;2.40;;
81211;SDS011;70686;52.494;13.420;2023-09-19T13:01:15;5.07;;;2.35;;
81211;SDS011;70686;52.494;13.420;2023-09-19T13:03:41;5.25;;;2.40;;
81211;SDS011;70686;52.494;13.420;2023-09-19T13:06:11;6.28;;;2.42;;
81211;SDS011;70686;52.494;13.420;2023-09-19T13:08:38;4.20;;;2.05;;
81211;SDS011;70686;52.494;13.420;2023-09-19T13:14:24;5.22;;;2.13;;
81211;SDS011;70686;52.494;13.420;2023-09-19T13:16:55;4.28;;;1.98;;
81211;SDS011;70686;52.494;13.420;2023-09-19T13:19:37;5.00;;;2.10;;
81211;SDS011;70686;52.494;13.420;2023-09-19T13:22:05;4.95;;;2.08;;
81211;SDS011;70686;52.494;13.420;2023-09-19T13:25:11;4.28;;;2.17;;
81211;SDS011;70686;52.494;13.420;2023-09-19T13:27:43;4.50;;;2.33;;
81211;SDS011;70686;52.494;13.420;2023-09-19T13:30:21;5.97;;;2.13;;
81211;SDS011;70686;52.494;13.420;2023-09-19T13:32:50;2.80;;;1.85;;
81211;SDS011;70686;52.494;13.420;2023-09-19T13:35:17;4.30;;;2.08;;
81211;SDS011;70686;52.494;13.420;2023-09-19T13:37:43;4.88;;;2.42;;
81211;SDS011;70686;52.494;13.420;2023-09-19T13:40:14;5.47;;;1.85;;
81211;SDS011;70686;52.494;13.420;2023-09-19T13:42:40;4.55;;;2.20;;
81211;SDS011;70686;52.494;13.420;2023-09-19T13:45:07;3.67;;;1.75;;
81211;SDS011;70686;52.494;13.420;2023-09-19T13:47:37;3.03;;;1.83;;
81211;SDS011;70686;52.494;13.420;2023-09-19T13:50:03;4.43;;;1.95;;
81211;SDS011;70686;52.494;13.420;2023-09-19T13:52:30;5.10;;;2.45;;
81211;SDS011;70686;52.494;13.420;2023-09-19T13:54:57;6.10;;;2.20;;
81211;SDS011;70686;52.494;13.420;2023-09-19T13:57:23;5.43;;;2.25;;
81211;SDS011;70686;52.494;13.420;2023-09-19T13:59:50;4.18;;;2.22;;
81211;SDS011;70686;52.494;13.420;2023-09-19T14:02:17;4.18;;;2.15;;
81211;SDS011;70686;52.494;13.420;2023-09-19T14:04:48;5.35;;;2.50;;
81211;SDS011;70686;52.494;13.420;2023-09-19T14:07:17;4.78;;;2.00;;
81211;SDS011;70686;52.494;13.420;2023-09-19T14:09:45;4.75;;;2.03;;
81211;SDS011;70686;52.494;13.420;2023-09-19T14:12:11;5.93;;;2.30;;
81211;SDS011;70686;52.494;13.420;2023-09-19T14:14:38;5.03;;;2.42;;
81211;SDS011;70686;52.494;13.420;2023-09-19T14:17:04;5.85;;;2.00;;
81211;SDS011;70686;52.494;13.420;2023-09-19T14:19:34;5.80;;;2.80;;
81211;SDS011;70686;52.494;13.420;2023-09-19T14:22:01;4.80;;;2.80;;
81211;SDS011;70686;52.494;13.420;2023-09-19T14:24:35;5.85;;;2.50;;
81211;SDS011;70686;52.494;13.420;2023-09-19T14:27:01;7.60;;;2.10;;
81211;SDS011;70686;52.494;13.420;2023-09-19T14:29:29;6.18;;;2.20;;
81211;SDS011;70686;52.494;13.420;2023-09-19T14:31:55;4.85;;;2.00;;
81211;SDS011;70686;52.494;13.420;2023-09-19T14:34:22;4.00;;;2.25;;
81211;SDS011;70686;52.494;13.420;2023-09-19T14:36:48;4.25;;;2.28;;
81211;SDS011;70686;52.494;13.420;2023-09-19T14:39:17;3.97;;;2.15;;
81211;SDS011;70686;52.494;13.420;2023-09-19T14:41:44;6.00;;;2.38;;
81211;SDS011;70686;52.494;13.420;2023-09-19T14:44:10;3.88;;;2.50;;
81211;SDS011;70686;52.494;13.420;2023-09-19T14:46:36;4.60;;;2.03;;
81211;SDS011;70686;52.494;13.420;2023-09-19T14:49:01;2.83;;;2.13;;
81211;SDS011;70686;52.494;13.420;2023-09-19T14:51:29;6.03;;;2.70;;
81211;SDS011;70686;52.494;13.420;2023-09-19T14:53:56;5.88;;;2.40;;
81211;SDS011;70686;52.494;13.420;2023-09-19T14:56:22;4.88;;;2.20;;
81211;SDS011;70686;52.494;13.420;2023-09-19T14:58:50;4.68;;;2.15;;
81211;SDS011;70686;52.494;13.420;2023-09-19T15:01:16;5.05;;;2.22;;
81211;SDS011;70686;52.494;13.420;2023-09-19T15:03:42;6.93;;;2.30;;
81211;SDS011;70686;52.494;13.420;2023-09-19T15:06:10;5.78;;;2.33;;
81211;SDS011;70686;52.494;13.420;2023-09-19T15:08:40;4.97;;;2.22;;
81211;SDS011;70686;52.494;13.420;2023-09-19T15:11:08;4.95;;;2.22;;
81211;SDS011;70686;52.494;13.420;2023-09-19T15:13:35;6.28;;;2.60;;
81211;SDS011;70686;52.494;13.420;2023-09-19T15:16:02;4.95;;;2.20;;
81211;SDS011;70686;52.494;13.420;2023-09-19T15:18:28;7.63;;;2.70;;
81211;SDS011;70686;52.494;13.420;2023-09-19T15:21:01;4.25;;;2.30;;
81211;SDS011;70686;52.494;13.420;2023-09-19T15:23:29;3.88;;;2.25;;
81211;SDS011;70686;52.494;13.420;2023-09-19T15:25:59;5.15;;;2.25;;
81211;SDS011;70686;52.494;13.420;2023-09-19T15:28:26;4.30;;;2.13;;
81211;SDS011;70686;52.494;13.420;2023-09-19T15:33:38;5.88;;;2.75;;